createdAt,value
2019-03-24T00:00:03.941Z,12.37
2019-03-24T00:02:30.027Z,11.60
2019-03-24T00:04:56.412Z,12.60
2019-03-24T00:07:22.463Z,12.20
2019-03-24T00:09:48.554Z,11.00
2019-03-24T00:12:14.893Z,13.37
2019-03-24T00:14:41.343Z,11.50
2019-03-24T00:17:08.064Z,11.63
2019-03-24T00:19:34.392Z,11.13
2019-03-24T00:22:00.720Z,11.97
2019-03-24T00:24:27.159Z,11.43
2019-03-24T00:26:53.586Z,10.67
2019-03-24T00:29:19.636Z,11.50
2019-03-24T00:31:45.959Z,11.50
2019-03-24T00:34:12.388Z,11.70
2019-03-24T00:36:38.819Z,11.30
2019-03-24T00:39:05.967Z,12.07
2019-03-24T00:41:32.050Z,10.73
2019-03-24T00:43:58.101Z,11.13
2019-03-24T00:46:24.147Z,11.53
2019-03-24T00:48:50.965Z,11.97
2019-03-24T00:51:17.012Z,10.87
2019-03-24T00:53:43.456Z,11.17
2019-03-24T00:56:09.853Z,11.10
2019-03-24T00:58:35.909Z,10.77
2019-03-24T01:01:02.100Z,11.17
2019-03-24T01:03:28.169Z,11.83
2019-03-24T01:05:54.408Z,11.87
2019-03-24T01:08:20.617Z,11.10
2019-03-24T01:10:47.888Z,12.00
2019-03-24T01:13:14.285Z,10.80
2019-03-24T01:15:47.786Z,10.63
2019-03-24T01:18:09.533Z,11.53
2019-03-24T01:20:35.588Z,11.40
2019-03-24T01:23:01.643Z,10.50
2019-03-24T01:25:28.063Z,11.60
2019-03-24T01:27:54.111Z,10.53
2019-03-24T01:30:21.364Z,10.90
2019-03-24T01:32:47.447Z,10.60
2019-03-24T01:35:13.509Z,11.10
2019-03-24T01:37:39.947Z,10.90
2019-03-24T01:40:08.096Z,11.43
2019-03-24T01:42:34.543Z,10.40
2019-03-24T01:45:00.594Z,10.80
2019-03-24T01:47:26.975Z,10.30
2019-03-24T01:49:53.056Z,10.80
2019-03-24T01:52:19.105Z,11.10
2019-03-24T01:54:45.209Z,10.70
2019-03-24T01:57:11.575Z,11.23
2019-03-24T01:59:37.656Z,10.20
2019-03-24T02:02:03.749Z,10.30
2019-03-24T02:04:30.157Z,10.00
2019-03-24T02:06:56.483Z,10.97
2019-03-24T02:09:22.564Z,10.10
2019-03-24T02:11:50.892Z,10.60
2019-03-24T02:14:17.233Z,11.20
2019-03-24T02:16:43.284Z,10.60
2019-03-24T02:19:09.347Z,10.80
2019-03-24T02:21:35.434Z,10.90
2019-03-24T02:24:01.481Z,11.00
2019-03-24T02:26:27.527Z,10.50
2019-03-24T02:28:53.984Z,10.87
2019-03-24T02:31:20.273Z,10.83
2019-03-24T02:33:46.331Z,10.40
2019-03-24T02:36:12.463Z,11.80
2019-03-24T02:38:38.780Z,10.77
2019-03-24T02:41:05.113Z,11.50
2019-03-24T02:43:31.437Z,11.33
2019-03-24T02:45:57.483Z,10.00
2019-03-24T02:48:23.563Z,10.63
2019-03-24T02:50:49.643Z,12.47
2019-03-24T02:53:15.734Z,11.00
2019-03-24T02:55:41.868Z,10.83
2019-03-24T02:58:07.955Z,11.10
2019-03-24T03:00:34.023Z,10.40
2019-03-24T03:03:00.171Z,10.80
2019-03-24T03:05:26.346Z,10.97
2019-03-24T03:07:52.420Z,10.50
2019-03-24T03:10:18.572Z,11.30
2019-03-24T03:12:47.646Z,10.20
2019-03-24T03:15:13.621Z,10.00
2019-03-24T03:17:40.056Z,10.37
2019-03-24T03:20:07.535Z,10.07
2019-03-24T03:22:33.786Z,11.07
2019-03-24T03:24:59.841Z,10.63
2019-03-24T03:27:25.933Z,10.60
2019-03-24T03:29:51.989Z,10.30
2019-03-24T03:32:18.341Z,10.00
2019-03-24T03:34:44.385Z,11.40
2019-03-24T03:37:10.433Z,9.47
2019-03-24T03:39:36.515Z,11.40
2019-03-24T03:42:03.184Z,10.60
2019-03-24T03:44:29.234Z,10.57
2019-03-24T03:46:55.313Z,9.63
2019-03-24T03:49:21.359Z,10.53
2019-03-24T03:51:47.805Z,10.40
2019-03-24T03:54:13.885Z,9.90
2019-03-24T03:56:39.931Z,10.40
2019-03-24T03:59:06.006Z,10.40
2019-03-24T04:01:32.370Z,10.00
2019-03-24T04:03:58.682Z,10.70
2019-03-24T04:06:24.729Z,10.00
2019-03-24T04:08:51.135Z,10.20
2019-03-24T04:11:17.198Z,10.53
2019-03-24T04:13:43.636Z,10.17
2019-03-24T04:16:09.691Z,10.80
2019-03-24T04:18:36.046Z,10.20
2019-03-24T04:21:02.378Z,10.53
2019-03-24T04:23:28.428Z,9.67
2019-03-24T04:25:54.846Z,10.30
2019-03-24T04:28:21.018Z,9.67
2019-03-24T04:30:47.693Z,10.57
2019-03-24T04:33:14.015Z,10.87
2019-03-24T04:35:40.765Z,9.90
2019-03-24T04:38:06.816Z,10.67
2019-03-24T04:40:33.263Z,10.30
2019-03-24T04:42:59.312Z,9.60
2019-03-24T04:45:25.394Z,9.53
2019-03-24T04:47:51.440Z,9.60
2019-03-24T04:50:17.520Z,11.10
2019-03-24T04:52:43.900Z,8.93
2019-03-24T04:55:11.390Z,10.70
2019-03-24T04:57:37.435Z,10.20
2019-03-24T05:00:06.008Z,10.37
2019-03-24T05:02:32.460Z,10.20
2019-03-24T05:04:58.521Z,9.70
2019-03-24T05:07:25.706Z,9.60
2019-03-24T05:09:54.402Z,10.67
2019-03-24T05:12:20.678Z,10.83
2019-03-24T05:14:47.124Z,10.50
2019-03-24T05:17:13.495Z,9.93
2019-03-24T05:19:39.675Z,10.60
2019-03-24T05:22:06.050Z,9.80
2019-03-24T05:24:32.473Z,9.63
2019-03-24T05:26:58.807Z,10.77
2019-03-24T05:29:24.892Z,10.33
2019-03-24T05:31:51.265Z,10.27
2019-03-24T05:34:17.652Z,10.03
2019-03-24T05:36:44.128Z,9.60
2019-03-24T05:39:10.180Z,9.50
2019-03-24T05:41:36.225Z,10.50
2019-03-24T05:44:02.410Z,10.30
2019-03-24T05:46:28.823Z,10.30
2019-03-24T05:48:55.164Z,9.67
2019-03-24T05:51:21.335Z,10.17
2019-03-24T05:53:47.436Z,10.27
2019-03-24T05:56:13.484Z,9.87
2019-03-24T05:58:39.868Z,9.90
2019-03-24T06:01:06.020Z,9.17
2019-03-24T06:03:32.103Z,9.20
2019-03-24T06:05:58.448Z,9.43
2019-03-24T06:08:24.503Z,9.80
2019-03-24T06:10:50.584Z,9.47
2019-03-24T06:13:16.630Z,9.60
2019-03-24T06:15:43.052Z,9.07
2019-03-24T06:18:09.100Z,9.77
2019-03-24T06:20:35.412Z,9.90
2019-03-24T06:23:01.531Z,9.93
2019-03-24T06:25:27.583Z,9.20
2019-03-24T06:27:53.880Z,9.43
2019-03-24T06:30:19.960Z,10.00
2019-03-24T06:32:46.012Z,9.30
2019-03-24T06:35:12.463Z,8.67
2019-03-24T06:37:39.054Z,8.90
2019-03-24T06:40:05.503Z,9.07
2019-03-24T06:42:32.064Z,9.57
2019-03-24T06:44:58.108Z,8.70
2019-03-24T06:47:24.165Z,9.00
2019-03-24T06:49:50.252Z,8.40
2019-03-24T06:52:17.436Z,8.50
2019-03-24T06:54:43.815Z,8.80
2019-03-24T06:57:10.277Z,8.50
2019-03-24T06:59:36.585Z,9.20
2019-03-24T07:02:02.908Z,8.97
2019-03-24T07:04:29.003Z,9.40
2019-03-24T07:06:55.368Z,8.37
2019-03-24T07:09:21.452Z,8.37
2019-03-24T07:11:47.836Z,8.30
2019-03-24T07:14:14.572Z,7.57
2019-03-24T07:16:40.904Z,7.77
2019-03-24T07:19:07.219Z,9.17
2019-03-24T07:21:33.327Z,7.93
2019-03-24T07:24:00.588Z,8.40
2019-03-24T07:26:27.332Z,7.47
2019-03-24T07:28:53.415Z,7.30
2019-03-24T07:31:20.091Z,8.40
2019-03-24T07:33:46.149Z,8.60
2019-03-24T07:36:12.553Z,7.97
2019-03-24T07:38:38.893Z,8.27
2019-03-24T07:41:05.212Z,8.33
2019-03-24T07:43:31.260Z,8.40
2019-03-24T07:45:57.707Z,8.63
2019-03-24T07:48:23.800Z,7.70
2019-03-24T07:50:50.211Z,9.13
2019-03-24T07:53:16.297Z,8.90
2019-03-24T07:55:42.376Z,8.37
2019-03-24T07:58:08.424Z,7.70
2019-03-24T08:00:36.075Z,8.57
2019-03-24T08:03:02.593Z,8.40
2019-03-24T08:05:29.021Z,8.47
2019-03-24T08:07:55.072Z,8.30
2019-03-24T08:10:21.375Z,8.87
2019-03-24T08:12:47.811Z,8.10
2019-03-24T08:15:15.262Z,8.17
2019-03-24T08:17:41.359Z,7.70
2019-03-24T08:20:07.621Z,8.63
2019-03-24T08:22:33.712Z,7.57
2019-03-24T08:24:59.843Z,7.87
2019-03-24T08:27:26.600Z,7.97
2019-03-24T08:29:52.648Z,7.40
2019-03-24T08:32:19.057Z,8.30
2019-03-24T08:34:45.407Z,8.33
2019-03-24T08:37:11.823Z,7.90
2019-03-24T08:39:37.941Z,8.00
2019-03-24T08:42:05.084Z,7.17
2019-03-24T08:44:31.499Z,7.53
2019-03-24T08:46:57.604Z,7.87
2019-03-24T08:49:23.657Z,8.70
2019-03-24T08:51:51.284Z,7.17
2019-03-24T08:54:17.785Z,7.33
2019-03-24T08:56:43.841Z,7.57
2019-03-24T08:59:09.891Z,8.53
2019-03-24T09:01:36.363Z,7.77
2019-03-24T09:04:02.487Z,7.60
2019-03-24T09:06:28.532Z,8.30
2019-03-24T09:08:54.923Z,7.27
2019-03-24T09:11:30.833Z,7.73
2019-03-24T09:13:49.656Z,6.70
2019-03-24T09:16:15.769Z,8.00
2019-03-24T09:18:52.229Z,7.43
2019-03-24T09:21:09.770Z,7.83
2019-03-24T09:23:36.127Z,7.90
2019-03-24T09:26:02.176Z,7.53
2019-03-24T09:28:28.287Z,6.97
2019-03-24T09:30:54.661Z,6.93
2019-03-24T09:33:21.138Z,6.73
2019-03-24T09:35:47.195Z,7.27
2019-03-24T09:38:13.632Z,6.60
2019-03-24T09:40:40.510Z,6.13
2019-03-24T09:43:06.559Z,7.30
2019-03-24T09:45:32.879Z,7.00
2019-03-24T09:48:00.339Z,7.40
2019-03-24T09:50:27.087Z,7.07
2019-03-24T09:52:53.256Z,6.50
2019-03-24T09:55:19.735Z,5.83
2019-03-24T09:57:45.779Z,6.43
2019-03-24T10:00:12.290Z,6.40
2019-03-24T10:02:39.245Z,6.70
2019-03-24T10:05:06.795Z,7.37
2019-03-24T10:07:33.597Z,6.43
2019-03-24T10:09:59.652Z,7.30
2019-03-24T10:12:25.763Z,6.73
2019-03-24T10:14:51.913Z,6.80
2019-03-24T10:17:17.974Z,6.73
2019-03-24T10:19:44.419Z,6.67
2019-03-24T10:22:11.267Z,6.33
2019-03-24T10:24:37.381Z,6.70
2019-03-24T10:27:03.728Z,6.10
2019-03-24T10:29:30.463Z,6.43
2019-03-24T10:31:56.571Z,6.90
2019-03-24T10:34:22.989Z,7.07
2019-03-24T10:36:49.099Z,6.07
2019-03-24T10:39:15.472Z,6.23
2019-03-24T10:41:41.805Z,6.00
2019-03-24T10:44:07.911Z,6.80
2019-03-24T10:46:34.364Z,6.73
2019-03-24T10:49:00.779Z,5.77
2019-03-24T10:51:27.228Z,7.30
2019-03-24T10:53:53.772Z,6.27
2019-03-24T10:56:19.820Z,5.90
2019-03-24T10:58:46.235Z,6.13
2019-03-24T11:01:12.343Z,5.90
2019-03-24T11:03:38.671Z,5.83
2019-03-24T11:06:04.783Z,6.43
2019-03-24T11:08:31.128Z,5.90
2019-03-24T11:10:57.232Z,5.60
2019-03-24T11:13:23.624Z,6.20
2019-03-24T11:15:50.104Z,4.80
2019-03-24T11:18:16.552Z,5.87
2019-03-24T11:20:42.605Z,6.07
2019-03-24T11:23:09.004Z,4.80
2019-03-24T11:25:35.129Z,4.90
2019-03-24T11:28:01.457Z,6.03
2019-03-24T11:30:27.794Z,5.67
2019-03-24T11:32:54.526Z,6.23
2019-03-24T11:35:21.003Z,5.70
2019-03-24T11:37:47.061Z,6.53
2019-03-24T11:40:14.011Z,5.23
2019-03-24T11:42:40.459Z,5.73
2019-03-24T11:45:08.820Z,6.10
2019-03-24T11:47:35.273Z,5.23
2019-03-24T11:50:03.688Z,5.60
2019-03-24T11:52:30.101Z,5.40
2019-03-24T11:54:56.844Z,5.20
2019-03-24T11:57:23.154Z,5.60
2019-03-24T11:59:49.577Z,4.90
2019-03-24T12:02:15.719Z,5.90
2019-03-24T12:04:41.767Z,5.50
2019-03-24T12:07:07.960Z,5.60
2019-03-24T12:09:34.013Z,5.60
2019-03-24T12:12:00.061Z,5.40
2019-03-24T12:14:26.444Z,5.70
2019-03-24T12:16:52.484Z,5.70
2019-03-24T12:19:18.540Z,4.97
2019-03-24T12:21:44.649Z,5.37
2019-03-24T12:24:11.039Z,5.03
2019-03-24T12:26:37.708Z,5.50
2019-03-24T12:29:03.819Z,5.20
2019-03-24T12:31:29.863Z,6.00
2019-03-24T12:33:55.971Z,5.27
2019-03-24T12:36:22.019Z,4.67
2019-03-24T12:38:48.491Z,5.43
2019-03-24T12:41:14.545Z,4.80
2019-03-24T12:43:40.661Z,4.43
2019-03-24T12:46:06.817Z,5.23
2019-03-24T12:48:32.864Z,5.10
2019-03-24T12:50:59.241Z,5.20
2019-03-24T12:53:25.560Z,4.80
2019-03-24T12:55:51.724Z,4.20
2019-03-24T12:58:17.768Z,5.60
2019-03-24T13:00:43.820Z,5.13
2019-03-24T13:03:09.923Z,4.37
2019-03-24T13:05:36.592Z,4.93
2019-03-24T13:08:13.989Z,9.00
2019-03-24T13:10:42.668Z,9.17
2019-03-24T13:13:09.786Z,10.30
2019-03-24T13:15:35.901Z,10.20
2019-03-24T13:18:02.272Z,8.30
2019-03-24T13:20:38.123Z,8.87
2019-03-24T13:22:56.705Z,8.27
2019-03-24T13:25:22.781Z,7.10
2019-03-24T13:27:48.829Z,7.77
2019-03-24T13:30:15.059Z,7.60
2019-03-24T13:32:41.110Z,7.67
2019-03-24T13:35:07.265Z,6.50
2019-03-24T13:37:34.651Z,6.40
2019-03-24T13:40:00.705Z,5.90
2019-03-24T13:42:27.125Z,6.60
2019-03-24T13:44:53.539Z,6.67
2019-03-24T13:47:19.662Z,6.40
2019-03-24T13:49:45.708Z,6.80
2019-03-24T13:52:12.833Z,7.20
2019-03-24T13:54:39.184Z,6.03
2019-03-24T13:57:05.305Z,6.07
2019-03-24T13:59:31.411Z,6.47
2019-03-24T14:01:57.459Z,6.47
2019-03-24T14:04:23.576Z,6.13
2019-03-24T14:06:49.634Z,6.10
2019-03-24T14:09:16.067Z,5.80
2019-03-24T14:11:42.248Z,6.50
2019-03-24T14:14:08.673Z,6.83
2019-03-24T14:16:34.781Z,6.67
2019-03-24T14:19:01.136Z,8.03
2019-03-24T14:21:27.552Z,5.40
2019-03-24T14:23:54.915Z,5.73
2019-03-24T14:26:20.972Z,5.80
2019-03-24T14:28:47.095Z,6.30
2019-03-24T14:31:13.403Z,6.10
2019-03-24T14:33:39.468Z,5.97
2019-03-24T14:36:05.753Z,6.57
2019-03-24T14:38:31.806Z,7.50
2019-03-24T14:40:57.855Z,5.60
2019-03-24T14:43:23.960Z,6.20
2019-03-24T14:45:50.362Z,8.07
2019-03-24T14:48:16.785Z,7.43
2019-03-24T14:50:53.607Z,7.60
2019-03-24T14:53:11.487Z,7.17
2019-03-24T14:55:38.029Z,8.40
2019-03-24T14:58:04.072Z,7.80
2019-03-24T15:00:37.991Z,7.27
2019-03-24T15:03:05.505Z,7.13
2019-03-24T15:05:32.361Z,6.47
2019-03-24T15:08:00.646Z,7.60
2019-03-24T15:10:26.950Z,6.47
2019-03-24T15:12:53.292Z,6.77
2019-03-24T15:15:19.349Z,5.87
2019-03-24T15:17:45.471Z,7.10
2019-03-24T15:20:11.547Z,6.17
2019-03-24T15:22:37.671Z,6.33
2019-03-24T15:25:05.677Z,8.40
2019-03-24T15:27:31.733Z,6.70
2019-03-24T15:29:57.832Z,6.40
2019-03-24T15:32:23.885Z,6.57
2019-03-24T15:34:50.262Z,5.60
2019-03-24T15:37:16.381Z,5.73
2019-03-24T15:39:43.127Z,7.47
2019-03-24T15:42:09.175Z,6.33
2019-03-24T15:44:35.293Z,7.20
2019-03-24T15:47:01.351Z,6.80
2019-03-24T15:49:27.835Z,5.87
2019-03-24T15:51:53.885Z,6.80
2019-03-24T15:54:19.996Z,6.40
2019-03-24T15:56:46.106Z,7.60
2019-03-24T15:59:12.219Z,7.83
2019-03-24T16:01:38.560Z,7.13
2019-03-24T16:04:04.981Z,6.70
2019-03-24T16:06:31.085Z,7.83
2019-03-24T16:08:57.200Z,6.93
2019-03-24T16:11:23.669Z,6.50
2019-03-24T16:13:50.548Z,6.77
2019-03-24T16:16:16.595Z,9.20
2019-03-24T16:18:42.972Z,7.33
2019-03-24T16:21:09.096Z,7.70
2019-03-24T16:23:35.849Z,6.63
2019-03-24T16:26:02.423Z,8.37
2019-03-24T16:28:29.108Z,7.20
2019-03-24T16:30:55.232Z,4.53
2019-03-24T16:33:21.300Z,5.60
2019-03-24T16:35:47.724Z,5.40
2019-03-24T16:38:13.846Z,5.13
2019-03-24T16:40:41.451Z,5.67
2019-03-24T16:43:08.416Z,5.80
2019-03-24T16:45:34.531Z,5.37
2019-03-24T16:48:01.017Z,5.40
2019-03-24T16:50:27.069Z,4.90
2019-03-24T16:52:53.115Z,5.13
2019-03-24T16:55:19.580Z,5.10
2019-03-24T16:57:46.091Z,4.97
2019-03-24T17:00:13.753Z,5.80
2019-03-24T17:02:40.223Z,5.50
2019-03-24T17:05:07.404Z,5.53
2019-03-24T17:07:33.456Z,6.43
2019-03-24T17:09:59.535Z,5.20
2019-03-24T17:12:25.649Z,5.27
2019-03-24T17:14:51.788Z,5.30
2019-03-24T17:17:17.833Z,5.60
2019-03-24T17:19:43.899Z,5.70
2019-03-24T17:22:10.006Z,5.47
2019-03-24T17:24:36.432Z,5.60
2019-03-24T17:27:02.475Z,5.70
2019-03-24T17:29:28.593Z,6.30
2019-03-24T17:31:54.916Z,6.33
2019-03-24T17:34:21.327Z,6.17
2019-03-24T17:36:47.774Z,6.07
2019-03-24T17:39:13.892Z,6.20
2019-03-24T17:41:39.944Z,5.93
2019-03-24T17:44:06.423Z,6.30
2019-03-24T17:46:32.467Z,6.13
2019-03-24T17:48:58.575Z,6.80
2019-03-24T17:51:24.935Z,6.67
2019-03-24T17:53:51.264Z,6.20
2019-03-24T17:56:17.596Z,6.60
2019-03-24T17:58:43.771Z,7.40
2019-03-24T18:01:10.153Z,7.80
2019-03-24T18:03:36.504Z,7.30
2019-03-24T18:06:03.315Z,7.37
2019-03-24T18:08:29.741Z,7.57
2019-03-24T18:10:56.061Z,7.30
2019-03-24T18:13:22.112Z,7.03
2019-03-24T18:15:49.703Z,7.43
2019-03-24T18:18:15.796Z,6.87
2019-03-24T18:20:42.029Z,7.27
2019-03-24T18:23:08.760Z,7.10
2019-03-24T18:25:35.089Z,7.40
2019-03-24T18:28:01.210Z,6.83
2019-03-24T18:30:27.623Z,7.80
2019-03-24T18:32:54.078Z,6.83
2019-03-24T18:35:20.227Z,7.30
2019-03-24T18:37:46.807Z,7.00
2019-03-24T18:40:15.220Z,7.50
2019-03-24T18:42:41.508Z,7.80
2019-03-24T18:45:10.229Z,7.37
2019-03-24T18:47:36.643Z,7.27
2019-03-24T18:50:08.264Z,7.60
2019-03-24T18:52:34.673Z,8.50
2019-03-24T18:55:00.784Z,7.47
2019-03-24T18:57:26.921Z,7.40
2019-03-24T18:59:52.966Z,7.87
2019-03-24T19:02:19.763Z,7.60
2019-03-24T19:04:46.195Z,7.70
2019-03-24T19:07:12.244Z,8.33
2019-03-24T19:09:38.669Z,7.80
2019-03-24T19:12:05.083Z,8.43
2019-03-24T19:14:31.129Z,7.30
2019-03-24T19:16:57.244Z,7.90
2019-03-24T19:19:23.298Z,6.90
2019-03-24T19:21:49.578Z,8.13
2019-03-24T19:24:15.714Z,8.57
2019-03-24T19:26:41.844Z,7.90
2019-03-24T19:29:08.263Z,8.27
2019-03-24T19:31:34.322Z,7.73
2019-03-24T19:34:00.721Z,8.57
2019-03-24T19:36:26.850Z,8.80
2019-03-24T19:38:54.315Z,8.57
2019-03-24T19:41:20.368Z,8.73
2019-03-24T19:43:46.856Z,8.37
2019-03-24T19:46:12.909Z,8.13
2019-03-24T19:48:39.021Z,7.77
2019-03-24T19:51:07.185Z,9.10
2019-03-24T19:53:34.059Z,8.77
2019-03-24T19:56:00.184Z,8.97
2019-03-24T19:58:26.680Z,8.83
2019-03-24T20:00:53.100Z,8.70
2019-03-24T20:03:19.160Z,9.83
2019-03-24T20:05:45.631Z,8.37
2019-03-24T20:08:12.052Z,8.83
2019-03-24T20:10:38.161Z,9.00
2019-03-24T20:13:04.207Z,8.60
2019-03-24T20:15:30.328Z,8.77
2019-03-24T20:17:57.012Z,9.27
2019-03-24T20:20:23.128Z,9.30
2019-03-24T20:22:56.374Z,8.80
2019-03-24T20:25:17.523Z,8.30
2019-03-24T20:27:43.967Z,7.83
2019-03-24T20:30:11.183Z,9.70
2019-03-24T20:32:37.242Z,9.23
2019-03-24T20:35:06.548Z,9.20
2019-03-24T20:37:32.881Z,8.27
2019-03-24T20:39:58.996Z,9.17
2019-03-24T20:42:25.735Z,9.27
2019-03-24T20:44:52.953Z,8.53
2019-03-24T20:47:19.319Z,9.90
2019-03-24T20:49:45.370Z,8.67
2019-03-24T20:52:11.416Z,9.83
2019-03-24T20:54:37.533Z,8.53
2019-03-24T20:57:03.580Z,8.47
2019-03-24T20:59:29.747Z,8.53
2019-03-24T21:01:55.797Z,8.30
2019-03-24T21:04:21.900Z,9.20
2019-03-24T21:06:48.216Z,8.13
2019-03-24T21:09:14.328Z,9.60
2019-03-24T21:11:40.674Z,8.13
2019-03-24T21:14:06.719Z,8.93
2019-03-24T21:16:33.194Z,9.70
2019-03-24T21:18:59.560Z,8.43
2019-03-24T21:21:25.976Z,9.00
2019-03-24T21:23:52.080Z,8.50
2019-03-24T21:26:18.341Z,9.27
2019-03-24T21:28:44.847Z,9.90
2019-03-24T21:31:10.900Z,9.77
2019-03-24T21:33:37.336Z,9.73
2019-03-24T21:36:03.870Z,9.20
2019-03-24T21:38:29.915Z,8.97
2019-03-24T21:40:56.268Z,9.20
2019-03-24T21:43:22.764Z,9.20
2019-03-24T21:45:48.852Z,10.07
2019-03-24T21:48:15.231Z,9.40
2019-03-24T21:50:41.320Z,9.07
2019-03-24T21:53:07.770Z,9.30
2019-03-24T21:55:34.511Z,9.43
2019-03-24T21:58:00.575Z,9.73
2019-03-24T22:00:32.362Z,10.10
2019-03-24T22:02:59.129Z,10.03
2019-03-24T22:05:25.240Z,9.80
2019-03-24T22:07:51.689Z,9.37
2019-03-24T22:10:17.853Z,10.20
2019-03-24T22:12:44.282Z,10.20
2019-03-24T22:15:10.928Z,10.30
2019-03-24T22:17:37.727Z,9.23
2019-03-24T22:20:05.683Z,9.37
2019-03-24T22:22:32.131Z,8.63
2019-03-24T22:24:58.184Z,9.70
2019-03-24T22:27:24.500Z,9.00
2019-03-24T22:29:50.568Z,11.10
2019-03-24T22:32:16.943Z,10.20
2019-03-24T22:34:43.464Z,10.07
2019-03-24T22:37:15.741Z,10.00
2019-03-24T22:39:37.545Z,9.93
2019-03-24T22:42:04.100Z,9.60
2019-03-24T22:44:30.149Z,10.90
2019-03-24T22:46:56.449Z,10.67
2019-03-24T22:49:22.557Z,10.50
2019-03-24T22:51:48.914Z,10.30
2019-03-24T22:54:15.227Z,9.97
2019-03-24T22:56:41.370Z,10.60
2019-03-24T22:59:07.860Z,9.87
2019-03-24T23:01:35.243Z,9.53
2019-03-24T23:04:01.399Z,10.63
2019-03-24T23:06:27.444Z,9.43
2019-03-24T23:08:53.574Z,10.30
2019-03-24T23:11:19.625Z,10.67
2019-03-24T23:13:45.712Z,9.50
2019-03-24T23:16:11.987Z,10.07
2019-03-24T23:18:38.045Z,9.97
2019-03-24T23:21:04.092Z,9.97
2019-03-24T23:23:30.185Z,9.67
2019-03-24T23:25:56.237Z,10.40
2019-03-24T23:28:22.292Z,10.20
2019-03-24T23:30:48.377Z,9.60
2019-03-24T23:33:14.528Z,9.67
2019-03-24T23:35:40.579Z,9.40
2019-03-24T23:38:06.628Z,9.53
2019-03-24T23:40:32.721Z,10.90
2019-03-24T23:42:58.784Z,9.37
2019-03-24T23:45:24.819Z,9.73
2019-03-24T23:47:51.316Z,9.67
2019-03-24T23:50:17.748Z,9.87
2019-03-24T23:52:44.159Z,9.67
2019-03-24T23:55:11.936Z,10.27
2019-03-24T23:57:38.277Z,9.63
